Flight Track Log - Related Links

Times and Time Zones

All times are in EDT time to prevent confusion due to time zone crossing. See the VH-LNH flight status page for this flight to view local times or setup timezone preferences in your user account.

Time Position Orientation Groundspeed Altitude Reporting Facility
EDT Latitude Longitude Course Direction KTS MPH feet Rate Location/Type
Thu 03:06:35 PM -20.3409 118.6802 55° Northeast 9,000  Level Aus
Thu 03:09:00 PM -20.2890 118.7592 55° Northeast  Level FlightAware
Thu 03:10:00 PM -20.2675 118.7920 55° Northeast  Level FlightAware
Thu 03:10:18 PM -20.2657 118.7947 55° Northeast 9,000  Level Aus
Thu 03:11:00 PM -20.2459 118.8248 55° Northeast  Level FlightAware
Thu 03:12:00 PM -20.2290 118.8505 55° Northeast  Level FlightAware
Thu 03:13:00 PM -20.2075 118.8832 55° Northeast  Level FlightAware
Thu 03:14:00 PM -20.1859 118.9160 55° Northeast  Level FlightAware
Thu 03:15:00 PM -20.1643 118.9488 55° Northeast  Level FlightAware
Thu 03:16:00 PM -20.1427 118.9815 55° Northeast  Level FlightAware
Thu 03:17:00 PM -20.1211 119.0142 55° Northeast  Level FlightAware
Thu 03:18:00 PM -20.0995 119.0470 55° Northeast  Level FlightAware
Thu 03:18:25 PM -20.0773 119.0806 55° Northeast 9,000  Level Aus
Thu 03:20:00 PM -20.0431 119.1324 55° Northeast  Level FlightAware
Thu 03:21:00 PM -20.0215 119.1650 55° Northeast  Level FlightAware
Thu 03:22:00 PM -19.9998 119.1977 55° Northeast  Level FlightAware
Thu 03:22:14 PM -20.0018 119.1947 55° Northeast 9,000  Level Aus
Thu 03:24:00 PM -19.9636 119.2524 55° Northeast  Level FlightAware
Thu 03:25:00 PM -19.9419 119.2851 55° Northeast  Level FlightAware
Thu 03:26:00 PM -19.9203 119.3178 55° Northeast  Level FlightAware
Thu 03:27:00 PM -19.8986 119.3504 55° Northeast  Level FlightAware
Thu 03:28:00 PM -19.8770 119.3830 55° Northeast  Level FlightAware
Thu 03:29:00 PM -19.8553 119.4157 55° Northeast  Level FlightAware
Thu 03:30:00 PM -19.8336 119.4483 55° Northeast  Level FlightAware
Thu 03:30:01 PM -19.8506 119.4227 360° North 9,000  Level Aus
Thu 03:30:01 PM -19.8506 119.4227 55° Northeast 9,000  Level Aus
Thu 03:31:00 PM -19.8120 119.4809 55° Northeast  Level FlightAware
Thu 03:32:00 PM -19.8076 119.4874 55° Northeast  Level FlightAware
Thu 03:33:00 PM -19.7859 119.5200 55° Northeast  Level FlightAware
Thu 03:34:00 PM -19.7642 119.5526 55° Northeast  Level FlightAware
Thu 03:35:00 PM -19.7425 119.5851 55° Northeast  Level FlightAware
Thu 03:36:00 PM -19.7208 119.6177 55° Northeast  Level FlightAware
Thu 03:37:00 PM -19.6991 119.6503 55° Northeast  Level FlightAware
Thu 03:38:00 PM -19.6774 119.6828 55° Northeast  Level FlightAware
Thu 03:39:00 PM -19.6557 119.7154 55° Northeast  Level FlightAware
Thu 03:40:00 PM -19.6339 119.7479 55° Northeast  Level FlightAware
Thu 03:40:03 PM -19.6233 119.7638 55° Northeast 9,000  Level Aus
Thu 03:41:03 PM -19.5853 119.8206 55° Northeast 9,000  Level Aus
Thu 03:43:00 PM -19.5429 119.8840 55° Northeast  Level FlightAware
Thu 03:44:00 PM -19.5212 119.9165 55° Northeast  Level FlightAware
Thu 03:44:00 PM -19.5474 119.8773 55° Northeast 9,000  Level Aus
Thu 03:45:00 PM -19.4994 119.9490 55° Northeast  Level FlightAware
Thu 03:45:32 PM -19.5094 119.9341 55° Northeast 9,000  Level Aus
Thu 03:46:00 PM -19.5039 119.9423 55° Northeast  Level FlightAware
Thu 03:47:00 PM -19.4775 119.9817 55° Northeast  Level FlightAware
Thu 03:48:00 PM -19.4557 120.0142 55° Northeast  Level FlightAware
Thu 03:49:00 PM -19.4339 120.0466 55° Northeast  Level FlightAware
Thu 03:50:00 PM -19.4121 120.0790 55° Northeast  Level FlightAware
Thu 03:51:00 PM -19.3903 120.1115 55° Northeast  Level FlightAware
Thu 03:52:00 PM -19.3685 120.1439 55° Northeast  Level FlightAware
Thu 03:53:00 PM -19.3467 120.1763 55° Northeast  Level FlightAware
Thu 03:53:15 PM -19.3192 120.2172 234° Southwest 9,000  Level Aus
Thu 03:54:00 PM -19.3249 120.2087 55° Northeast  Level FlightAware
Thu 03:55:00 PM -19.2810 120.2739 54° Northeast  Level FlightAware
Thu 03:56:00 PM -19.2592 120.3063 54° Northeast  Level FlightAware
Thu 03:56:15 PM -19.2811 120.2738 55° Northeast 9,000  Level Aus
Thu 03:57:00 PM -19.2374 120.3387 55° Northeast  Level Estimated
Thu 03:58:00 PM -19.2430 120.3306 55° Northeast  Level FlightAware
Thu 03:59:00 PM -19.2213 120.3630 55° Northeast  Level FlightAware
Thu 04:00:00 PM -19.1995 120.3954 55° Northeast  Level FlightAware
Thu 04:00:01 PM -19.2048 120.3868 54° Northeast 9,000  Level Aus
Thu 04:00:33 PM -19.1667 120.4433 55° Northeast 9,000  Level Aus
Thu 04:02:00 PM -19.1351 120.4903 55° Northeast  Level FlightAware
Thu 04:02:39 PM -19.1288 120.4997 360° North 300  Level Aus
Thu 04:02:48 PM -19.1288 120.4997 55° Northeast 300  Level Aus
Thu 04:04:00 PM -19.1020 120.5396 55° Northeast  Level FlightAware
Thu 04:05:00 PM -19.0796 120.5729 55° Northeast  Level FlightAware
Thu 04:06:00 PM -19.0572 120.6062 55° Northeast  Level FlightAware
Thu 04:07:00 PM -19.0348 120.6394 55° Northeast  Level FlightAware
Thu 04:08:00 PM -19.0124 120.6727 55° Northeast  Level FlightAware
Thu 04:09:00 PM -18.9900 120.7059 55° Northeast  Level FlightAware
Thu 04:09:00 PM -18.9772 120.7250 55° Northeast 300  Level Aus
Thu 04:10:00 PM -18.9547 120.7582 55° Northeast  Level FlightAware
Thu 04:10:36 PM -18.9772 120.7250 55° Northeast 300  Level Aus
Thu 04:11:00 PM -18.9323 120.7914 54° Northeast  Level FlightAware
Thu 04:12:00 PM -18.9458 120.7715 55° Northeast  Level FlightAware
Thu 04:13:00 PM -18.9233 120.8047 54° Northeast  Level FlightAware
Thu 04:14:00 PM -18.9009 120.8379 54° Northeast  Level FlightAware
Thu 04:15:00 PM -18.8785 120.8711 54° Northeast  Level FlightAware
Thu 04:16:00 PM -18.8560 120.9043 54° Northeast  Level FlightAware
Thu 04:16:02 PM -18.8252 120.9499 234° Southwest 300  Level Aus
Thu 04:17:00 PM -18.8336 120.9375 54° Northeast  Level FlightAware
Thu 04:18:00 PM -18.7810 121.0151 54° Northeast  Level FlightAware
Thu 04:19:00 PM -18.7586 121.0482 54° Northeast  Level FlightAware
Thu 04:20:00 PM -18.7361 121.0814 54° Northeast  Level FlightAware
Thu 04:21:00 PM -18.7136 121.1145 54° Northeast  Level FlightAware
Thu 04:22:00 PM -18.6911 121.1476 54° Northeast  Level FlightAware
Thu 04:23:00 PM -18.6686 121.1807 54° Northeast  Level FlightAware
Thu 04:24:00 PM -18.6462 121.2138 54° Northeast  Level FlightAware
Thu 04:25:00 PM -18.6236 121.2469 54° Northeast  Level FlightAware
Thu 04:26:00 PM -18.6011 121.2800 54° Northeast  Level FlightAware
Thu 04:27:00 PM -18.5786 121.3131 54° Northeast  Level FlightAware
Thu 04:28:00 PM -18.5561 121.3462 54° Northeast  Level FlightAware
Thu 04:29:00 PM -18.5336 121.3792 54° Northeast  Level FlightAware
Thu 04:30:00 PM -18.5111 121.4123 54° Northeast  Level FlightAware
Thu 04:30:22 PM -18.5205 121.3985 100° East 300  Level Aus
Thu 04:31:22 PM -18.5205 121.3985 54° Northeast 300  Level Aus
Thu 04:33:00 PM -18.4837 121.4525 54° Northeast  Level FlightAware
Thu 04:34:00 PM -18.4611 121.4855 54° Northeast  Level FlightAware
Thu 04:35:00 PM -18.4386 121.5185 54° Northeast  Level FlightAware
Thu 04:36:00 PM -18.4160 121.5515 54° Northeast  Level FlightAware
Thu 04:36:54 PM -18.3677 121.6221 234° Southwest 300  Level Aus
Thu 04:37:00 PM -18.3935 121.5845 54° Northeast  Level FlightAware
Thu 04:38:00 PM -18.3429 121.6584 54° Northeast  Level FlightAware
Thu 04:38:36 PM -18.3677 121.6221 54° Northeast 300  Level Aus
Thu 04:39:00 PM -18.3203 121.6914 54° Northeast  Level FlightAware
Thu 04:40:00 PM -18.2978 121.7244 54° Northeast  Level FlightAware
Thu 04:40:36 PM -18.2913 121.7338 54° Northeast 300  Level Aus
Thu 04:42:00 PM -18.2596 121.7800 54° Northeast  Level FlightAware
Thu 04:43:00 PM -18.2370 121.8129 54° Northeast  Level FlightAware
Thu 04:44:00 PM -18.2144 121.8459 54° Northeast  Level FlightAware
Thu 04:45:00 PM -18.1918 121.8788 54° Northeast  Level FlightAware
Thu 04:45:23 PM -18.2147 121.8455 54° Northeast 300  Level Aus
Thu 04:47:00 PM -18.1782 121.8987 54° Northeast  Level FlightAware
Thu 04:48:00 PM -18.1555 121.9316 54° Northeast  Level FlightAware
Thu 04:49:00 PM -18.1329 121.9645 54° Northeast  Level FlightAware
Thu 04:50:00 PM -18.1103 121.9974 54° Northeast  Level FlightAware
Thu 04:51:00 PM -18.0876 122.0303 54° Northeast  Level FlightAware
Thu 04:52:00 PM -18.0650 122.0632 54° Northeast  Level FlightAware
Thu 04:53:00 PM -18.0418 122.0957 245° Southwest  Level Estimated
Thu 04:54:00 PM -18.0187 122.1281 245° Southwest  Level Estimated
Thu 04:54:00 PM -18.0231 122.1240 53° Northeast 300  Level Aus
Thu 04:55:00 PM -17.9996 122.1563 245° Southwest  Level Estimated
Thu 04:56:00 PM -17.9762 122.1885 245° Southwest  Level Estimated
Thu 04:57:00 PM -17.9496 122.2277 245° Southwest  Level FlightAware
Thu 04:58:00 PM -17.9447 122.2317 245° Southwest  Level Estimated
Thu 04:59:00 PM -17.9496 122.2277 245° Southwest  Level FlightAware
Thu 05:00:00 PM -17.9447 122.2317 245° Southwest  Level Estimated
Thu 05:01:00 PM -17.9496 122.2277 245° Southwest  Level FlightAware
Thu 05:02:00 PM -17.9447 122.2317 245° Southwest  Level Estimated
Thu 05:03:00 PM -17.9496 122.2277 245° Southwest  Level FlightAware
Thu 05:04:00 PM -17.9447 122.2317 245° Southwest  Level Estimated
Thu 05:05:00 PM -17.9496 122.2277 245° Southwest  Level FlightAware
Thu 05:06:00 PM -17.9447 122.2317 245° Southwest  Level Estimated
Thu 05:07:00 PM -17.9496 122.2277 245° Southwest  Level FlightAware
Thu 05:08:00 PM -17.9447 122.2317 245° Southwest  Level Estimated
Thu 05:09:00 PM -17.9496 122.2277 245° Southwest  Level FlightAware
Thu 05:10:00 PM -17.9447 122.2317 245° Southwest  Level Estimated

Login

Don't have an account? Register now (free) for customized features, flight alerts, and more!